Florennes, Belgium
Current Conditions -  °F | °C
As of 9:55 PM on Tuesday 27 Jan 2015 (Local Time) from EBFS Reporting Station
Broken Clouds Broken Clouds  
Wind Chill: 33°   Ceiling: 1400
Heat Index: 37°   Visibility: 4mi
Dew Point: 36°   Wind: 6mph
Humidity: 93%   Direction: 250°WSW
Pressure: 30.24"   Gusts: NA
Location:  50.26°N, 4.65°E
Report Text: EBFS 272055Z 25005KT 7000 SCT006 BKN014 03/02 Q1024 YLO
Loading
Personal Weather Stations






























Interactive Weather Map New forecast layout! Learn more

10-Day Weather Forecast

Advertisements
Track Severe Weather on mobile